Time;durP1;ratioP1;P1;durP2;ratioP2;P2;SDS_P1;SDS_P2;PMS_P1;PMS_P2;Temp;Humidity;BMP_temperature;BMP_pressure;BME280_temperature;BME280_humidity;BME280_pressure;Samples;Min_cycle;Max_cycle;Signal;HPM_P1;HPM_P2
2022/06/12 00:01:44;;;;;;;1.00;0.55;;;16.60;99.90;;;;;;5037104;28;20059;-77
2022/06/12 00:04:09;;;;;;;0.10;0.10;;;16.70;99.90;;;;;;5037480;28;20047;-77
2022/06/12 00:06:35;;;;;;;0.20;0.20;;;16.50;99.90;;;;;;5055267;28;20027;-77
2022/06/12 00:09:01;;;;;;;0.32;0.32;;;16.50;99.90;;;;;;5055765;28;20028;-77
2022/06/12 00:11:28;;;;;;;0.47;0.47;;;16.30;99.90;;;;;;5055354;28;20025;-77
2022/06/12 00:13:58;;;;;;;3.03;0.90;;;16.20;99.90;;;;;;5036661;28;20025;-77
2022/06/12 00:16:25;;;;;;;0.30;0.30;;;16.20;99.90;;;;;;5054834;28;20143;-77
2022/06/12 00:18:51;;;;;;;0.10;0.10;;;16.30;99.90;;;;;;5054731;28;20021;-77
2022/06/12 00:21:17;;;;;;;0.10;0.10;;;16.30;99.90;;;;;;5055323;28;20102;-77
2022/06/12 00:23:51;;;;;;;0.10;0.10;;;16.30;99.90;;;;;;5037719;28;20369;-77
2022/06/12 00:26:29;;;;;;;0.30;0.30;;;16.30;99.90;;;;;;5021046;28;20503;-77
2022/06/12 00:29:00;;;;;;;0.50;0.38;;;16.40;99.90;;;;;;5037337;28;20047;-77
2022/06/12 00:31:28;;;;;;;0.50;0.50;;;16.30;99.90;;;;;;5054876;28;20029;-77
2022/06/12 00:33:54;;;;;;;0.10;0.10;;;16.10;99.90;;;;;;5055813;28;20031;-77
2022/06/12 00:36:20;;;;;;;0.30;0.30;;;16.00;99.90;;;;;;5037360;28;20051;-77
2022/06/12 00:38:46;;;;;;;0.10;0.10;;;15.90;99.90;;;;;;5037010;28;20029;-77
2022/06/12 00:41:11;;;;;;;0.10;0.10;;;15.90;99.90;;;;;;5021319;28;20039;-77
2022/06/12 00:43:38;;;;;;;0.40;0.40;;;15.90;99.90;;;;;;5054984;28;20033;-77
2022/06/12 00:46:05;;;;;;;0.10;0.10;;;15.90;99.90;;;;;;5056744;28;20029;-77
2022/06/12 00:48:35;;;;;;;0.30;0.30;;;15.90;99.90;;;;;;5059407;28;20472;-77
2022/06/12 00:51:06;;;;;;;0.40;0.40;;;16.00;99.90;;;;;;5059219;28;20020;-77
2022/06/12 00:53:44;;;;;;;0.10;0.10;;;16.00;99.90;;;;;;5041930;28;20025;-77
2022/06/12 00:56:13;;;;;;;0.28;0.28;;;16.10;99.90;;;;;;5059517;28;20747;-77
2022/06/12 00:58:44;;;;;;;0.10;0.10;;;16.20;99.90;;;;;;5040926;28;20052;-77
2022/06/12 01:01:17;;;;;;;0.20;0.20;;;16.10;99.90;;;;;;5040976;28;20025;-77
2022/06/12 01:06:33;;;;;;;0.20;0.20;;;15.90;99.90;;;;;;5058185;28;20017;-77
2022/06/12 01:09:02;;;;;;;0.20;0.20;;;15.80;99.90;;;;;;5058214;28;20503;-77
2022/06/12 01:11:28;;;;;;;0.13;0.13;;;15.80;99.90;;;;;;5041163;28;20066;-77
2022/06/12 01:13:54;;;;;;;0.10;0.10;;;15.90;99.90;;;;;;5041368;28;20029;-77
2022/06/12 01:16:20;;;;;;;0.22;0.22;;;15.90;99.90;;;;;;5041889;28;20082;-77
2022/06/12 01:18:53;;;;;;;1.00;1.00;;;15.90;99.90;;;;;;5042303;28;20021;-77
2022/06/12 01:21:53;;;;;;;0.15;0.15;;;16.00;99.90;;;;;;5060916;28;20055;-77
2022/06/12 01:24:45;;;;;;;0.30;0.30;;;16.10;99.90;;;;;;5060402;28;20028;-77
2022/06/12 01:27:22;;;;;;;0.30;0.30;;;15.90;99.90;;;;;;5059224;28;20025;-77
2022/06/12 01:30:26;;;;;;;1.40;0.95;;;15.60;99.90;;;;;;5041104;28;20275;-77
2022/06/12 01:33:00;;;;;;;0.40;0.40;;;15.40;99.90;;;;;;4954499;28;20525;-77
2022/06/12 01:35:58;;;;;;;0.20;0.20;;;15.40;99.90;;;;;;5041123;28;20068;-77
2022/06/12 01:38:46;;;;;;;0.25;0.25;;;15.40;99.90;;;;;;5040664;28;20033;-77
2022/06/12 01:41:34;;;;;;;0.90;0.90;;;15.20;99.90;;;;;;5040854;28;20033;-77
2022/06/12 01:44:23;;;;;;;0.38;0.38;;;15.20;99.90;;;;;;5058881;28;20024;-77
2022/06/12 01:47:17;;;;;;;0.40;0.40;;;15.10;99.90;;;;;;5040588;28;20033;-77
2022/06/12 01:49:48;;;;;;;1.00;0.75;;;15.10;99.90;;;;;;5040866;28;20029;-77
2022/06/12 01:52:23;;;;;;;0.10;0.10;;;15.20;99.90;;;;;;5040420;28;20064;-77
2022/06/12 01:54:59;;;;;;;0.10;0.10;;;15.40;99.90;;;;;;5041640;28;20029;-77
2022/06/12 01:57:40;;;;;;;0.10;0.10;;;15.50;99.90;;;;;;5041305;28;20025;-77
2022/06/12 02:00:10;;;;;;;0.20;0.20;;;15.50;99.90;;;;;;5059778;28;20119;-77
2022/06/12 02:02:43;;;;;;;0.95;0.82;;;15.60;99.90;;;;;;5059104;28;20029;-77
2022/06/12 02:05:37;;;;;;;0.28;0.28;;;15.40;99.90;;;;;;5058266;28;20104;-77
2022/06/12 02:08:27;;;;;;;0.25;0.25;;;15.30;99.90;;;;;;5040377;28;20033;-77
2022/06/12 02:14:07;;;;;;;0.20;0.20;;;15.30;99.90;;;;;;5041228;28;20033;-77
2022/06/12 02:16:40;;;;;;;0.30;0.30;;;15.30;99.90;;;;;;5040801;28;20526;-77
2022/06/12 02:19:33;;;;;;;0.20;0.20;;;15.20;99.90;;;;;;5039798;28;20036;-77
2022/06/12 02:22:23;;;;;;;0.32;0.32;;;15.10;99.90;;;;;;5013841;28;20104;-77
2022/06/12 02:24:55;;;;;;;0.63;0.63;;;15.10;99.90;;;;;;5040363;28;20021;-77
2022/06/12 02:27:31;;;;;;;0.30;0.30;;;15.10;99.90;;;;;;5023880;28;20028;-77
2022/06/12 02:30:13;;;;;;;0.20;0.20;;;15.40;99.90;;;;;;5059129;28;20025;-77
2022/06/12 02:32:45;;;;;;;0.10;0.10;;;15.50;99.90;;;;;;5059575;28;20519;-77
2022/06/12 02:35:33;;;;;;;0.20;0.20;;;15.50;99.90;;;;;;5041624;28;20549;-77
2022/06/12 02:38:08;;;;;;;0.95;0.95;;;15.30;99.90;;;;;;5010526;28;20029;-77
2022/06/12 02:40:52;;;;;;;0.20;0.20;;;15.30;99.90;;;;;;5040936;28;20125;-77
2022/06/12 02:43:25;;;;;;;0.52;0.52;;;15.10;99.90;;;;;;5039740;28;20013;-77
2022/06/12 02:45:56;;;;;;;0.30;0.30;;;14.90;99.90;;;;;;5023334;28;20025;-77
2022/06/12 02:48:23;;;;;;;0.20;0.20;;;14.90;99.90;;;;;;5039294;28;20492;-77
2022/06/12 02:51:07;;;;;;;0.70;0.70;;;14.90;99.90;;;;;;5057766;28;20025;-77
2022/06/12 02:53:58;;;;;;;0.30;0.30;;;14.80;99.90;;;;;;5038653;28;20021;-77
2022/06/12 02:56:45;;;;;;;2.38;0.52;;;14.60;99.90;;;;;;5038677;28;20069;-77
2022/06/12 02:59:36;;;;;;;0.68;0.68;;;14.50;99.90;;;;;;5038858;28;20376;-77
2022/06/12 03:02:15;;;;;;;0.30;0.30;;;14.60;99.90;;;;;;5039658;28;20120;-77
2022/06/12 03:04:55;;;;;;;0.75;0.75;;;14.80;99.90;;;;;;5057413;28;20032;-77
2022/06/12 03:07:21;;;;;;;0.50;0.50;;;14.80;99.90;;;;;;5039249;28;20025;-77
2022/06/12 03:09:47;;;;;;;0.35;0.32;;;14.70;99.90;;;;;;5056425;28;20066;-77
2022/06/12 03:12:13;;;;;;;0.30;0.30;;;14.60;99.90;;;;;;5038909;28;20410;-77
2022/06/12 03:14:39;;;;;;;0.20;0.20;;;14.70;99.90;;;;;;5039647;28;20036;-77
2022/06/12 03:17:05;;;;;;;0.20;0.20;;;14.80;99.90;;;;;;5058069;28;20033;-77
2022/06/12 03:19:42;;;;;;;0.40;0.40;;;14.90;99.90;;;;;;5057296;28;20032;-77
2022/06/12 03:22:19;;;;;;;0.38;0.38;;;14.80;99.90;;;;;;5039758;28;20025;-77
2022/06/12 03:25:13;;;;;;;0.63;0.63;;;14.80;99.90;;;;;;5039876;28;20021;-77
2022/06/12 03:27:55;;;;;;;0.47;0.47;;;14.60;99.90;;;;;;5056750;28;20472;-77
2022/06/12 03:30:40;;;;;;;0.30;0.30;;;14.60;99.90;;;;;;5056697;28;20021;-77
2022/06/12 03:33:09;;;;;;;0.32;0.32;;;14.50;99.90;;;;;;5039541;28;20552;-77
2022/06/12 03:35:47;;;;;;;0.20;0.20;;;14.60;99.90;;;;;;5022813;28;20029;-77
2022/06/12 03:38:17;;;;;;;0.10;0.10;;;14.70;99.90;;;;;;5039807;28;20370;-77
2022/06/12 03:40:58;;;;;;;0.63;0.63;;;14.70;99.90;;;;;;5057247;28;20029;-77
2022/06/12 03:43:33;;;;;;;0.60;0.45;;;14.60;99.90;;;;;;5022209;28;20060;-77
2022/06/12 03:46:19;;;;;;;0.30;0.30;;;14.40;99.90;;;;;;5056047;28;20025;-77
2022/06/12 03:49:16;;;;;;;0.17;0.17;;;14.40;99.90;;;;;;5038623;28;20048;-77
2022/06/12 03:51:51;;;;;;;0.75;0.60;;;14.50;99.90;;;;;;5022354;28;20029;-77
2022/06/12 03:54:39;;;;;;;0.55;0.38;;;14.50;99.90;;;;;;5038605;28;20025;-77
2022/06/12 04:00:26;;;;;;;0.55;0.55;;;14.40;99.90;;;;;;5056160;28;20029;-77
2022/06/12 04:02:59;;;;;;;0.17;0.17;;;14.50;99.90;;;;;;5038215;28;20021;-77
2022/06/12 04:05:33;;;;;;;1.35;0.30;;;14.50;99.90;;;;;;5038575;28;20472;-77
2022/06/12 04:08:01;;;;;;;0.15;0.15;;;14.60;99.90;;;;;;5055920;28;20472;-77
2022/06/12 04:10:30;;;;;;;0.10;0.10;;;14.70;99.90;;;;;;5038302;28;20028;-77
2022/06/12 04:12:57;;;;;;;0.65;0.65;;;14.70;99.90;;;;;;5056241;28;20021;-77
2022/06/12 04:15:29;;;;;;;0.17;0.17;;;14.80;99.90;;;;;;5039029;28;20036;-77
2022/06/12 04:17:56;;;;;;;1.75;0.50;;;14.90;99.90;;;;;;5057373;28;20047;-77
2022/06/12 04:20:27;;;;;;;0.50;0.50;;;15.00;99.90;;;;;;5039533;28;20025;-77
2022/06/12 04:23:06;;;;;;;0.95;0.95;;;15.00;99.90;;;;;;5060271;28;20104;-77
2022/06/12 04:25:42;;;;;;;0.10;0.10;;;15.00;99.90;;;;;;5060811;28;20045;-77
2022/06/12 04:28:25;;;;;;;0.20;0.20;;;15.20;99.90;;;;;;5026361;28;20033;-77
2022/06/12 04:30:53;;;;;;;0.57;0.55;;;15.40;99.90;;;;;;5043230;28;20029;-77
2022/06/12 04:33:26;;;;;;;0.75;0.75;;;15.30;99.90;;;;;;5060404;28;20096;-77
2022/06/12 04:35:55;;;;;;;0.22;0.20;;;15.30;99.90;;;;;;5060140;28;20029;-77
2022/06/12 04:38:23;;;;;;;0.75;0.75;;;15.30;99.90;;;;;;5042308;28;20104;-77
2022/06/12 04:40:49;;;;;;;0.20;0.20;;;15.30;99.90;;;;;;5060095;28;20025;-77
2022/06/12 04:43:16;;;;;;;0.47;0.47;;;15.30;99.90;;;;;;5042395;28;20029;-77
2022/06/12 04:45:43;;;;;;;0.20;0.20;;;15.40;99.90;;;;;;5026299;28;20481;-77
2022/06/12 04:48:19;;;;;;;0.30;0.30;;;15.50;99.90;;;;;;5042101;28;20021;-77
2022/06/12 04:50:46;;;;;;;0.20;0.20;;;15.50;99.90;;;;;;5060667;28;20025;-77
2022/06/12 04:53:12;;;;;;;1.08;1.02;;;15.60;99.90;;;;;;5043612;28;20031;-77
2022/06/12 04:55:37;;;;;;;0.47;0.47;;;15.70;99.90;;;;;;5041920;28;20045;-77
2022/06/12 04:58:05;;;;;;;0.10;0.10;;;15.80;99.90;;;;;;5060021;28;20051;-77
2022/06/12 05:00:33;;;;;;;0.10;0.10;;;15.90;99.90;;;;;;5042117;28;20115;-77
2022/06/12 05:02:59;;;;;;;2.08;0.93;;;16.00;99.90;;;;;;5042385;28;20413;-78
2022/06/12 05:05:25;;;;;;;0.20;0.20;;;16.20;99.90;;;;;;5026117;28;20024;-77
2022/06/12 05:07:52;;;;;;;0.20;0.20;;;16.30;99.90;;;;;;5042048;28;20032;-77
2022/06/12 05:10:18;;;;;;;0.45;0.45;;;16.40;99.90;;;;;;5026055;28;20492;-77
2022/06/12 05:12:45;;;;;;;0.82;0.50;;;16.50;99.90;;;;;;5041311;28;20036;-77
2022/06/12 05:15:12;;;;;;;0.10;0.10;;;16.50;99.90;;;;;;5064761;28;20052;-77
2022/06/12 05:17:44;;;;;;;0.10;0.10;;;16.70;99.90;;;;;;5046342;28;20392;-77
2022/06/12 05:20:19;;;;;;;0.10;0.10;;;16.90;99.90;;;;;;5061115;28;20055;-77
2022/06/12 05:22:45;;;;;;;0.10;0.10;;;17.10;99.90;;;;;;5064653;28;20018;-77
2022/06/12 05:25:12;;;;;;;0.22;0.22;;;17.10;99.90;;;;;;5042195;28;20476;-77
2022/06/12 05:27:38;;;;;;;1.08;0.95;;;17.10;99.90;;;;;;5041454;28;20545;-77
2022/06/12 05:30:05;;;;;;;1.38;0.50;;;16.90;99.90;;;;;;5029263;28;20171;-77
2022/06/12 05:32:31;;;;;;;0.22;0.22;;;16.90;99.90;;;;;;5024298;28;20040;-77
2022/06/12 05:34:57;;;;;;;0.10;0.10;;;17.10;99.90;;;;;;5060074;28;20412;-77
2022/06/12 05:37:22;;;;;;;0.45;0.45;;;17.20;99.90;;;;;;5059622;28;20036;-77
2022/06/12 05:42:25;;;;;;;0.20;0.20;;;17.50;99.90;;;;;;5051183;28;20051;-73
2022/06/12 05:44:51;;;;;;;0.10;0.10;;;17.70;99.90;;;;;;5054134;28;20096;-73
2022/06/12 05:47:18;;;;;;;0.10;0.10;;;17.80;99.90;;;;;;5058233;28;20013;-73
2022/06/12 05:49:43;;;;;;;0.10;0.10;;;18.10;99.90;;;;;;5054050;28;20025;-72
2022/06/12 05:52:09;;;;;;;0.50;0.50;;;18.20;99.90;;;;;;5054019;28;20035;-73
2022/06/12 05:54:35;;;;;;;0.10;0.10;;;18.30;99.90;;;;;;5035931;28;20107;-73
2022/06/12 05:57:01;;;;;;;0.10;0.10;;;18.40;99.90;;;;;;5035623;28;20032;-73
2022/06/12 05:59:26;;;;;;;1.00;0.35;;;18.60;99.90;;;;;;5053956;28;20423;-73
2022/06/12 06:01:52;;;;;;;0.22;0.20;;;18.70;99.90;;;;;;5053885;28;20108;-73
2022/06/12 06:04:18;;;;;;;0.05;0.05;;;18.70;99.90;;;;;;5064103;28;20059;-73
2022/06/12 06:06:49;;;;;;;0.10;0.10;;;18.70;99.90;;;;;;5056213;28;20059;-73
2022/06/12 06:09:16;;;;;;;0.03;0.03;;;18.90;99.90;;;;;;5073602;28;20024;-73
2022/06/12 06:11:43;;;;;;;0.10;0.10;;;19.10;99.90;;;;;;5064929;28;20025;-73
2022/06/12 06:14:09;;;;;;;0.10;0.10;;;19.10;99.90;;;;;;5053265;28;20439;-73
2022/06/12 06:16:36;;;;;;;0.10;0.10;;;19.30;99.90;;;;;;5053376;28;20032;-73
2022/06/12 06:19:02;;;;;;;0.25;0.25;;;19.30;99.90;;;;;;5019035;28;20033;-73
2022/06/12 06:21:29;;;;;;;0.00;0.00;;;19.30;99.90;;;;;;5055147;28;20361;-73
2022/06/12 06:23:55;;;;;;;0.10;0.10;;;19.30;99.90;;;;;;5052837;28;20021;-73
2022/06/12 06:26:22;;;;;;;0.08;0.08;;;19.40;99.90;;;;;;5035401;28;20023;-73
2022/06/12 06:28:52;;;;;;;0.10;0.10;;;19.60;99.90;;;;;;5053246;28;20108;-73
2022/06/12 06:31:19;;;;;;;0.05;0.05;;;19.90;99.90;;;;;;5053185;28;20040;-73
2022/06/12 06:33:45;;;;;;;0.10;0.10;;;20.00;99.90;;;;;;5035287;28;20044;-73
2022/06/12 06:36:12;;;;;;;0.10;0.10;;;20.20;99.90;;;;;;5053121;28;20017;-73
2022/06/12 06:38:38;;;;;;;0.10;0.10;;;20.40;99.90;;;;;;5022023;28;20040;-73
2022/06/12 06:41:05;;;;;;;0.00;0.00;;;20.60;99.90;;;;;;5070567;28;20104;-73
2022/06/12 06:46:13;;;;;;;0.03;0.03;;;20.80;99.90;;;;;;5050944;28;20054;-73
2022/06/12 06:46:17;;;;;;;0.10;0.10;;;21.00;99.90;;;;;;5052890;28;20062;-73
2022/06/12 06:48:43;;;;;;;0.30;0.30;;;21.20;99.90;;;;;;5052646;28;20025;-73
2022/06/12 06:51:08;;;;;;;0.00;0.00;;;21.40;99.90;;;;;;5052737;28;20028;-73
2022/06/12 06:53:34;;;;;;;0.10;0.10;;;21.40;99.90;;;;;;5052816;28;20461;-73
2022/06/12 06:56:00;;;;;;;0.10;0.10;;;21.50;99.90;;;;;;5052706;28;20116;-73
2022/06/12 06:58:30;;;;;;;0.05;0.05;;;21.60;99.90;;;;;;5052410;28;20110;-73
2022/06/12 07:00:55;;;;;;;0.00;0.00;;;21.80;99.90;;;;;;5052604;28;20468;-73
2022/06/12 07:03:22;;;;;;;0.00;0.00;;;22.00;99.70;;;;;;5052588;28;20106;-73
2022/06/12 07:05:48;;;;;;;0.03;0.03;;;22.10;97.50;;;;;;5052445;28;20624;-73
2022/06/12 07:08:15;;;;;;;0.10;0.10;;;22.10;97.70;;;;;;5052169;28;20100;-73
2022/06/12 07:10:42;;;;;;;0.00;0.00;;;22.30;97.20;;;;;;5052345;28;20029;-73
2022/06/12 07:13:08;;;;;;;0.00;0.00;;;22.30;95.80;;;;;;5063552;28;20104;-73
2022/06/12 07:15:35;;;;;;;0.00;0.00;;;22.40;93.60;;;;;;5071735;28;20252;-73
2022/06/12 07:18:02;;;;;;;0.00;0.00;;;22.70;93.20;;;;;;5071952;28;20029;-73
2022/06/12 07:20:32;;;;;;;0.00;0.00;;;22.90;92.50;;;;;;5072095;28;20551;-73
2022/06/12 07:22:57;;;;;;;0.10;0.10;;;23.00;90.00;;;;;;5072325;28;20024;-73
2022/06/12 07:25:24;;;;;;;0.00;0.00;;;22.90;88.70;;;;;;5072243;28;20020;-73
2022/06/12 07:27:50;;;;;;;0.20;0.20;;;23.00;85.10;;;;;;5071503;28;20207;-73
2022/06/12 07:30:20;;;;;;;0.10;0.10;;;23.20;78.20;;;;;;5062587;28;20528;-73
2022/06/12 07:32:46;;;;;;;0.00;0.00;;;23.10;81.70;;;;;;5057620;28;20172;-73
2022/06/12 07:35:11;;;;;;;0.00;0.00;;;23.20;75.20;;;;;;5072032;28;20036;-73
2022/06/12 07:37:38;;;;;;;0.00;0.00;;;23.50;69.10;;;;;;5061345;28;20411;-73
2022/06/12 07:40:07;;;;;;;1.08;0.75;;;23.70;65.70;;;;;;5051477;28;20439;-73
2022/06/12 07:42:33;;;;;;;0.10;0.10;;;24.00;66.30;;;;;;5050653;28;20025;-74
2022/06/12 07:44:59;;;;;;;0.00;0.00;;;24.10;64.80;;;;;;5051962;28;20388;-73
2022/06/12 07:47:25;;;;;;;0.08;0.08;;;24.20;64.20;;;;;;5051681;28;20024;-73
2022/06/12 07:49:51;;;;;;;0.00;0.00;;;24.30;61.00;;;;;;5051813;28;20102;-74
2022/06/12 07:52:18;;;;;;;0.10;0.10;;;24.50;61.00;;;;;;5051922;28;20031;-74
2022/06/12 07:54:44;;;;;;;0.00;0.00;;;24.50;60.30;;;;;;5051741;28;20025;-73
2022/06/12 07:57:10;;;;;;;0.08;0.05;;;24.70;60.20;;;;;;5051839;28;20147;-74
2022/06/12 07:59:36;;;;;;;0.15;0.15;;;24.90;57.40;;;;;;5052100;28;20104;-76
2022/06/12 08:02:02;;;;;;;0.00;0.00;;;25.10;53.70;;;;;;5017889;28;20116;-74
2022/06/12 08:04:29;;;;;;;0.10;0.10;;;25.20;53.40;;;;;;5052555;28;20028;-75
2022/06/12 08:06:55;;;;;;;0.00;0.00;;;25.10;51.90;;;;;;5052069;28;20051;-74
2022/06/12 08:09:23;;;;;;;0.10;0.10;;;25.10;53.40;;;;;;5052003;28;20119;-74
2022/06/12 08:11:50;;;;;;;0.00;0.00;;;25.10;53.60;;;;;;5052362;28;20029;-74
2022/06/12 08:14:18;;;;;;;0.00;0.00;;;25.10;52.90;;;;;;5052209;28;20033;-74
2022/06/12 08:16:44;;;;;;;0.00;0.00;;;25.30;52.50;;;;;;5052378;28;20404;-75
2022/06/12 08:21:57;;;;;;;1.85;1.70;;;25.70;52.10;;;;;;5052474;28;20063;-74
2022/06/12 08:24:23;;;;;;;0.00;0.00;;;25.80;51.20;;;;;;5055898;28;20021;-74
2022/06/12 08:26:49;;;;;;;0.00;0.00;;;26.00;52.30;;;;;;5067325;28;20025;-75
2022/06/12 08:29:15;;;;;;;0.00;0.00;;;26.00;53.70;;;;;;5054706;28;20021;-75
2022/06/12 08:31:47;;;;;;;0.00;0.00;;;26.20;52.80;;;;;;5020420;28;20051;-75
2022/06/12 08:34:23;;;;;;;0.00;0.00;;;26.50;52.50;;;;;;5053994;28;20538;-75
2022/06/12 08:36:52;;;;;;;0.00;0.00;;;26.40;51.10;;;;;;5072095;28;20081;-75
2022/06/12 08:39:18;;;;;;;0.00;0.00;;;26.40;51.30;;;;;;5054233;28;20031;-75
2022/06/12 08:41:47;;;;;;;0.43;0.35;;;26.50;50.90;;;;;;5072125;28;20036;-75
2022/06/12 08:44:43;;;;;;;0.10;0.10;;;26.20;51.60;;;;;;5072758;28;20020;-75
2022/06/12 08:47:19;;;;;;;0.00;0.00;;;26.50;50.80;;;;;;5054432;28;20032;-75
2022/06/12 08:50:02;;;;;;;0.00;0.00;;;26.70;49.60;;;;;;5072196;28;20116;-75
2022/06/12 08:52:46;;;;;;;0.00;0.00;;;26.90;47.30;;;;;;5072511;28;20032;-75
2022/06/12 08:55:26;;;;;;;0.00;0.00;;;26.70;46.70;;;;;;5054286;28;20032;-75
2022/06/12 08:58:00;;;;;;;0.00;0.00;;;26.80;47.10;;;;;;5054175;28;20103;-75
2022/06/12 09:00:31;;;;;;;0.00;0.00;;;27.20;47.00;;;;;;5054288;28;20032;-75
2022/06/12 09:02:57;;;;;;;0.00;0.00;;;27.20;45.40;;;;;;5072371;28;20020;-75
2022/06/12 09:05:31;;;;;;;0.00;0.00;;;27.30;45.70;;;;;;5072184;28;20035;-75
2022/06/12 09:07:56;;;;;;;0.00;0.00;;;27.60;46.80;;;;;;5074127;28;20077;-74
2022/06/12 09:10:42;;;;;;;0.00;0.00;;;27.70;45.00;;;;;;5075010;28;20028;-75
2022/06/12 09:13:25;;;;;;;0.00;0.00;;;28.00;46.60;;;;;;5074884;28;20375;-74
2022/06/12 09:16:18;;;;;;;0.05;0.05;;;28.30;45.30;;;;;;5075042;28;20023;-74
2022/06/12 09:19:04;;;;;;;0.00;0.00;;;28.30;43.50;;;;;;5074734;28;20031;-74
2022/06/12 09:22:09;;;;;;;0.00;0.00;;;28.20;42.00;;;;;;5074801;28;20025;-74
2022/06/12 09:25:15;;;;;;;0.00;0.00;;;28.40;42.00;;;;;;5074678;28;20024;-74
2022/06/12 09:27:41;;;;;;;0.03;0.03;;;28.90;42.30;;;;;;4992725;28;20023;-74
2022/06/12 09:30:11;;;;;;;0.52;0.52;;;29.20;41.60;;;;;;5040963;28;20443;-76
2022/06/12 09:33:07;;;;;;;0.32;0.30;;;29.00;38.60;;;;;;5054893;28;20013;-76
2022/06/12 09:36:08;;;;;;;0.00;0.00;;;28.90;38.80;;;;;;5054344;28;20030;-74
2022/06/12 09:38:47;;;;;;;0.00;0.00;;;29.10;40.40;;;;;;5036849;28;20037;-74
2022/06/12 09:41:22;;;;;;;0.00;0.00;;;29.00;40.00;;;;;;5054107;28;20044;-74
2022/06/12 09:44:01;;;;;;;0.00;0.00;;;29.00;40.70;;;;;;5064970;28;20427;-74
2022/06/12 09:46:35;;;;;;;0.15;0.10;;;29.00;40.20;;;;;;5059932;28;20020;-74
2022/06/12 09:49:13;;;;;;;0.00;0.00;;;29.20;40.40;;;;;;5056050;28;20098;-74
2022/06/12 09:52:00;;;;;;;0.00;0.00;;;29.50;40.70;;;;;;5042309;28;20112;-74
2022/06/12 09:54:28;;;;;;;0.00;0.00;;;29.70;41.40;;;;;;5054036;28;20055;-74
2022/06/12 09:57:13;;;;;;;0.00;0.00;;;29.90;41.20;;;;;;5053744;28;20057;-75
2022/06/12 10:00:00;;;;;;;0.05;0.05;;;30.30;41.40;;;;;;5063054;28;20108;-75
2022/06/12 10:03:07;;;;;;;0.00;0.00;;;30.90;38.40;;;;;;5074348;28;20021;-75
2022/06/12 10:05:51;;;;;;;0.00;0.00;;;30.60;38.70;;;;;;5073140;28;20508;-75
2022/06/12 10:08:39;;;;;;;0.00;0.00;;;30.80;38.20;;;;;;5073599;28;20025;-75
2022/06/12 10:11:11;;;;;;;0.00;0.00;;;31.10;38.20;;;;;;5072667;28;20048;-75
2022/06/12 10:14:00;;;;;;;0.00;0.00;;;31.30;38.20;;;;;;5055732;28;20449;-74
2022/06/12 10:16:45;;;;;;;0.00;0.00;;;30.90;37.30;;;;;;5066268;28;20057;-75
2022/06/12 10:19:24;;;;;;;0.00;0.00;;;30.90;37.70;;;;;;5052278;28;20025;-75
2022/06/12 10:21:55;;;;;;;0.00;0.00;;;31.10;37.40;;;;;;5053621;28;20552;-74
2022/06/12 10:24:21;;;;;;;0.00;0.00;;;31.30;37.50;;;;;;5053575;28;20028;-75
2022/06/12 10:26:56;;;;;;;0.10;0.00;;;31.00;36.10;;;;;;5053251;28;20029;-74
2022/06/12 10:29:24;;;;;;;0.10;0.03;;;30.80;36.80;;;;;;5053191;28;20025;-75
2022/06/12 10:32:01;;;;;;;0.00;0.00;;;31.10;36.70;;;;;;5053132;28;20082;-74
2022/06/12 10:34:30;;;;;;;0.00;0.00;;;31.20;35.40;;;;;;5053226;28;20029;-74
2022/06/12 10:37:08;;;;;;;0.35;0.20;;;31.10;34.70;;;;;;5053022;28;20052;-75
2022/06/12 10:39:35;;;;;;;10.68;1.38;;;31.40;35.30;;;;;;5053170;28;20029;-75
2022/06/12 10:42:04;;;;;;;0.00;0.00;;;30.60;35.80;;;;;;5052985;28;20392;-73
2022/06/12 10:44:30;;;;;;;0.00;0.00;;;30.60;36.50;;;;;;5053618;28;20029;-74
2022/06/12 10:47:06;;;;;;;0.00;0.00;;;31.10;36.90;;;;;;5052955;28;20032;-74
2022/06/12 10:49:32;;;;;;;0.00;0.00;;;31.50;36.10;;;;;;5052072;28;20072;-73
2022/06/12 10:52:12;;;;;;;0.52;0.20;;;31.60;36.40;;;;;;5052956;28;20097;-73
2022/06/12 10:54:38;;;;;;;0.10;0.10;;;31.40;36.30;;;;;;5053111;28;20473;-73
2022/06/12 10:57:14;;;;;;;0.35;0.35;;;30.90;36.20;;;;;;5052470;28;20301;-74
2022/06/12 10:59:55;;;;;;;0.00;0.00;;;30.40;35.80;;;;;;5035023;28;20416;-76
2022/06/12 11:02:46;;;;;;;0.00;0.00;;;30.80;37.00;;;;;;5018423;28;20116;-74
2022/06/12 11:05:20;;;;;;;0.00;0.00;;;31.10;35.30;;;;;;5052696;28;20025;-74
2022/06/12 11:08:17;;;;;;;0.00;0.00;;;31.10;35.80;;;;;;5052442;28;20025;-74
2022/06/12 11:11:10;;;;;;;0.00;0.00;;;31.50;35.10;;;;;;5052538;28;20420;-74
2022/06/12 11:13:48;;;;;;;0.00;0.00;;;31.70;33.40;;;;;;5052510;28;20017;-74
2022/06/12 11:16:49;;;;;;;0.00;0.00;;;31.80;33.70;;;;;;5052668;28;20099;-74
2022/06/12 11:19:46;;;;;;;0.00;0.00;;;31.30;32.80;;;;;;5052475;28;20094;-74
2022/06/12 11:22:33;;;;;;;0.00;0.00;;;31.20;33.50;;;;;;5052387;28;20025;-74
2022/06/12 11:25:02;;;;;;;0.00;0.00;;;31.50;33.60;;;;;;5034595;28;20191;-74
2022/06/12 11:27:51;;;;;;;0.10;0.10;;;31.80;33.70;;;;;;5052120;28;20029;-74
2022/06/12 11:30:25;;;;;;;0.00;0.00;;;31.70;33.50;;;;;;5034011;28;20489;-74
2022/06/12 11:33:32;;;;;;;0.00;0.00;;;31.90;33.50;;;;;;5052363;28;20052;-74
2022/06/12 11:36:02;;;;;;;0.10;0.10;;;32.00;33.80;;;;;;5036090;28;20036;-73
2022/06/12 11:39:09;;;;;;;0.00;0.00;;;32.10;33.60;;;;;;5051942;28;20065;-72
2022/06/12 11:42:10;;;;;;;0.00;0.00;;;32.30;33.40;;;;;;5051179;23;20069;-74
2022/06/12 11:45:00;;;;;;;0.00;0.00;;;32.00;34.30;;;;;;5052021;28;20021;-75
2022/06/12 11:47:50;;;;;;;0.10;0.10;;;31.60;34.10;;;;;;5052056;28;20021;-74
2022/06/12 11:50:37;;;;;;;0.10;0.10;;;31.30;34.20;;;;;;5032052;28;20039;-74
2022/06/12 11:53:18;;;;;;;0.10;0.10;;;31.20;34.50;;;;;;5032202;28;20032;-74
2022/06/12 11:55:52;;;;;;;0.00;0.00;;;31.50;33.80;;;;;;5032120;28;20041;-74
2022/06/12 11:58:41;;;;;;;0.00;0.00;;;31.20;32.40;;;;;;5032273;28;20436;-74
2022/06/12 12:01:18;;;;;;;0.00;0.00;;;31.00;33.80;;;;;;5023943;28;20092;-74
2022/06/12 12:04:15;;;;;;;0.00;0.00;;;31.20;32.80;;;;;;5014361;28;20426;-74
2022/06/12 12:07:06;;;;;;;0.00;0.00;;;31.10;34.00;;;;;;5014173;28;20088;-74
2022/06/12 12:09:48;;;;;;;0.20;0.20;;;31.20;32.90;;;;;;5014114;28;20206;-74
2022/06/12 12:12:29;;;;;;;0.00;0.00;;;30.80;32.70;;;;;;5014131;28;20030;-74
2022/06/12 12:14:58;;;;;;;0.88;0.10;;;31.00;32.50;;;;;;5030629;28;20026;-74
2022/06/12 12:17:33;;;;;;;0.00;0.00;;;30.80;32.60;;;;;;5031698;28;20465;-74
2022/06/12 12:20:14;;;;;;;0.10;0.10;;;30.80;32.90;;;;;;5031695;28;20061;-74
2022/06/12 12:22:46;;;;;;;0.00;0.00;;;30.90;33.40;;;;;;5031788;28;20562;-74
2022/06/12 12:25:15;;;;;;;0.00;0.00;;;30.60;33.20;;;;;;4997496;28;20033;-75
2022/06/12 12:27:44;;;;;;;0.00;0.00;;;30.60;33.30;;;;;;5031481;28;20025;-74
2022/06/12 12:30:23;;;;;;;0.10;0.10;;;30.60;33.40;;;;;;5031541;28;20025;-74
2022/06/12 12:32:52;;;;;;;0.00;0.00;;;30.40;33.70;;;;;;5031734;28;20044;-74
2022/06/12 12:41:13;;;;;;;0.00;0.00;;;30.30;32.70;;;;;;5031316;28;20057;-74
2022/06/12 12:43:55;;;;;;;0.00;0.00;;;30.50;33.20;;;;;;5017617;28;20053;-74
2022/06/12 12:46:24;;;;;;;0.00;0.00;;;30.50;32.80;;;;;;5035046;28;20084;-74
2022/06/12 12:48:54;;;;;;;0.00;0.00;;;30.60;33.80;;;;;;5034057;28;20116;-75
2022/06/12 12:51:30;;;;;;;0.10;0.10;;;30.40;31.10;;;;;;5017478;28;20028;-74
2022/06/12 12:54:17;;;;;;;0.00;0.00;;;30.00;29.50;;;;;;5035241;28;20037;-74
2022/06/12 12:57:04;;;;;;;0.00;0.00;;;30.00;29.90;;;;;;5035131;28;20699;-74
2022/06/12 12:59:42;;;;;;;0.00;0.00;;;30.20;31.40;;;;;;5035065;28;20172;-74
2022/06/12 13:02:30;;;;;;;0.00;0.00;;;30.40;31.20;;;;;;5017451;28;20037;-75
2022/06/12 13:05:16;;;;;;;0.00;0.00;;;30.30;29.90;;;;;;5035091;28;20389;-74
2022/06/12 13:08:13;;;;;;;0.00;0.00;;;30.20;28.90;;;;;;5034959;28;20026;-74
2022/06/12 13:10:42;;;;;;;0.00;0.00;;;30.20;28.90;;;;;;5034946;28;20064;-74
2022/06/12 13:13:38;;;;;;;0.00;0.00;;;30.30;29.00;;;;;;5034786;28;20056;-74
2022/06/12 13:16:21;;;;;;;0.10;0.10;;;29.90;28.20;;;;;;5033727;28;20048;-74
2022/06/12 13:18:50;;;;;;;0.00;0.00;;;29.70;29.40;;;;;;5034813;28;20029;-74
2022/06/12 13:21:22;;;;;;;0.00;0.00;;;29.90;29.30;;;;;;5017026;28;20475;-74
2022/06/12 13:24:13;;;;;;;0.10;0.05;;;30.00;29.50;;;;;;5034967;28;20079;-74
2022/06/12 13:26:41;;;;;;;0.00;0.00;;;30.10;28.80;;;;;;5034700;28;20033;-74
2022/06/12 13:29:14;;;;;;;3.00;0.52;;;30.00;29.20;;;;;;5000321;28;20041;-74
2022/06/12 13:31:40;;;;;;;0.00;0.00;;;30.10;30.10;;;;;;5034548;28;20093;-74
2022/06/12 13:34:06;;;;;;;0.00;0.00;;;30.00;29.80;;;;;;5034668;28;20026;-74
2022/06/12 13:36:44;;;;;;;0.00;0.00;;;30.20;30.10;;;;;;5034311;28;20032;-74
2022/06/12 13:39:37;;;;;;;0.00;0.00;;;30.30;30.50;;;;;;5016666;28;20031;-74
2022/06/12 13:42:08;;;;;;;0.00;0.00;;;30.30;29.80;;;;;;5032138;28;20069;-74
2022/06/12 13:44:38;;;;;;;0.30;0.20;;;30.10;29.50;;;;;;5034429;28;20014;-74
2022/06/12 13:47:19;;;;;;;0.00;0.00;;;30.00;30.10;;;;;;5016528;28;20025;-74